createdAt,value
2022-07-26T00:00:08.871Z,7.85
2022-07-26T00:02:35.606Z,8.90
2022-07-26T00:05:02.270Z,8.60
2022-07-26T00:07:28.770Z,8.40
2022-07-26T00:10:05.591Z,8.05
2022-07-26T00:14:58.873Z,7.88
2022-07-26T00:17:25.616Z,6.97
2022-07-26T00:19:52.155Z,8.18
2022-07-26T00:22:34.047Z,10.27
2022-07-26T00:25:04.957Z,8.27
2022-07-26T00:27:32.509Z,10.98
2022-07-26T00:29:59.675Z,8.82
2022-07-26T00:32:26.315Z,8.65
2022-07-26T00:34:53.031Z,9.70
2022-07-26T00:37:20.914Z,6.78
2022-07-26T00:39:48.490Z,9.30
2022-07-26T00:42:15.274Z,7.93
2022-07-26T00:44:43.998Z,6.18
2022-07-26T00:47:12.045Z,6.90
2022-07-26T00:49:38.630Z,8.73
2022-07-26T00:52:05.861Z,7.18
2022-07-26T00:54:32.837Z,7.88
2022-07-26T00:56:59.434Z,8.27
2022-07-26T00:59:26.048Z,6.50
2022-07-26T01:01:53.519Z,8.40
2022-07-26T01:04:20.515Z,9.50
2022-07-26T01:06:48.950Z,7.82
2022-07-26T01:09:16.559Z,5.97
2022-07-26T01:11:43.439Z,8.02
2022-07-26T01:14:10.435Z,8.32
2022-07-26T01:16:37.487Z,9.07
2022-07-26T01:19:04.206Z,7.65
2022-07-26T01:21:31.107Z,7.28
2022-07-26T01:23:58.198Z,8.13
2022-07-26T01:26:25.724Z,6.80
2022-07-26T01:28:52.598Z,6.78
2022-07-26T01:31:19.312Z,6.85
2022-07-26T01:33:46.323Z,6.82
2022-07-26T01:36:13.141Z,7.25
2022-07-26T01:38:41.021Z,7.88
2022-07-26T01:41:07.712Z,6.43
2022-07-26T01:43:34.601Z,8.43
2022-07-26T01:46:01.340Z,7.63
2022-07-26T01:48:28.112Z,8.48
2022-07-26T01:50:54.712Z,7.88
2022-07-26T01:53:21.329Z,8.27
2022-07-26T01:55:47.837Z,6.97
2022-07-26T01:58:14.372Z,7.32
2022-07-26T02:00:41.067Z,8.10
2022-07-26T02:03:07.616Z,9.18
2022-07-26T02:05:34.282Z,8.18
2022-07-26T02:08:00.839Z,7.72
2022-07-26T02:10:47.405Z,9.45
2022-07-26T02:13:14.147Z,8.00
2022-07-26T02:15:41.293Z,9.23
2022-07-26T02:18:08.208Z,8.38
2022-07-26T02:20:35.156Z,7.03
2022-07-26T02:23:02.267Z,9.18
2022-07-26T02:25:29.036Z,8.38
2022-07-26T02:27:55.833Z,7.68
2022-07-26T02:30:22.569Z,8.40
2022-07-26T02:32:49.167Z,7.63
2022-07-26T02:35:15.818Z,11.30
2022-07-26T02:37:43.867Z,8.25
2022-07-26T02:40:15.472Z,8.23
2022-07-26T02:42:47.208Z,9.45
2022-07-26T02:45:13.781Z,9.60
2022-07-26T02:47:48.370Z,10.02
2022-07-26T02:50:19.751Z,11.65
2022-07-26T02:52:49.691Z,9.80
2022-07-26T02:55:18.162Z,10.70
2022-07-26T02:57:46.182Z,9.63
2022-07-26T03:00:17.986Z,9.65
2022-07-26T03:02:44.616Z,10.07
2022-07-26T03:05:11.479Z,9.63
2022-07-26T03:07:38.098Z,8.57
2022-07-26T03:10:05.681Z,8.95
2022-07-26T03:12:32.207Z,8.82
2022-07-26T03:14:58.842Z,11.10
2022-07-26T03:17:25.516Z,12.30
2022-07-26T03:19:52.094Z,11.50
2022-07-26T03:22:18.752Z,10.07
2022-07-26T03:24:45.921Z,8.85
2022-07-26T03:27:12.436Z,8.57
2022-07-26T03:29:39.174Z,10.27
2022-07-26T03:32:06.168Z,9.57
2022-07-26T03:34:33.153Z,11.95
2022-07-26T03:36:59.725Z,12.57
2022-07-26T03:39:26.309Z,9.90
2022-07-26T03:41:52.947Z,9.55
2022-07-26T03:44:19.450Z,9.32
2022-07-26T03:46:46.338Z,10.85
2022-07-26T03:49:16.655Z,10.60
2022-07-26T03:51:43.863Z,10.35
2022-07-26T03:54:10.957Z,9.35
2022-07-26T03:56:38.020Z,11.73
2022-07-26T03:59:09.046Z,9.70
2022-07-26T04:01:36.705Z,9.13
2022-07-26T04:04:03.533Z,9.93
2022-07-26T04:06:30.253Z,11.40
2022-07-26T04:08:56.912Z,10.88
2022-07-26T04:11:26.734Z,12.88
2022-07-26T04:13:55.843Z,10.13
2022-07-26T04:16:22.626Z,9.45
2022-07-26T04:18:49.365Z,9.45
2022-07-26T04:21:16.385Z,8.63
2022-07-26T04:23:46.455Z,8.02
2022-07-26T04:26:15.957Z,11.77
2022-07-26T04:28:43.331Z,10.57
2022-07-26T04:31:10.526Z,8.48
2022-07-26T04:33:37.151Z,9.20
2022-07-26T04:36:04.015Z,9.30
2022-07-26T04:38:30.773Z,10.10
2022-07-26T04:40:58.048Z,8.15
2022-07-26T04:43:25.219Z,7.65
2022-07-26T04:45:52.108Z,8.48
2022-07-26T04:48:18.819Z,9.45
2022-07-26T04:50:48.351Z,9.50
2022-07-26T04:53:15.371Z,8.80
2022-07-26T04:55:42.140Z,8.65
2022-07-26T04:58:09.565Z,7.75
2022-07-26T05:00:56.536Z,6.75
2022-07-26T05:03:25.264Z,8.43
2022-07-26T05:05:52.651Z,6.63
2022-07-26T05:08:19.427Z,8.07
2022-07-26T05:10:46.150Z,9.52
2022-07-26T05:13:12.957Z,8.45
2022-07-26T05:15:39.703Z,9.52
2022-07-26T05:18:12.697Z,8.98
2022-07-26T05:20:40.920Z,7.15
2022-07-26T05:23:07.983Z,8.82
2022-07-26T05:25:35.381Z,7.68
2022-07-26T05:28:02.215Z,8.27
2022-07-26T05:30:28.998Z,7.90
2022-07-26T05:32:55.643Z,8.70
2022-07-26T05:35:22.334Z,8.35
2022-07-26T05:37:49.294Z,8.25
2022-07-26T05:40:16.585Z,8.02
2022-07-26T05:42:43.151Z,9.57
2022-07-26T05:45:10.153Z,9.13
2022-07-26T05:47:36.712Z,13.05
2022-07-26T05:50:04.559Z,9.65
2022-07-26T05:52:31.254Z,10.52
2022-07-26T05:54:58.022Z,10.38
2022-07-26T05:57:24.969Z,8.52
2022-07-26T05:59:51.867Z,8.05
2022-07-26T06:02:18.623Z,10.38
2022-07-26T06:04:47.436Z,8.38
2022-07-26T06:07:16.877Z,9.27
2022-07-26T06:09:43.707Z,9.20
2022-07-26T06:12:10.401Z,12.13
2022-07-26T06:14:36.966Z,7.68
2022-07-26T06:17:04.495Z,9.23
2022-07-26T06:19:31.319Z,6.97
2022-07-26T06:21:57.901Z,10.82
2022-07-26T06:24:24.748Z,8.88
2022-07-26T06:26:56.782Z,7.68
2022-07-26T06:29:24.113Z,12.07
2022-07-26T06:31:58.781Z,10.73
2022-07-26T06:34:25.373Z,7.20
2022-07-26T06:36:52.068Z,9.95
2022-07-26T06:39:18.618Z,11.63
2022-07-26T06:41:45.214Z,8.23
2022-07-26T06:44:12.018Z,8.27
2022-07-26T06:46:38.748Z,8.15
2022-07-26T06:49:05.611Z,7.88
2022-07-26T06:51:33.704Z,8.88
2022-07-26T06:54:00.835Z,7.30
2022-07-26T06:56:27.875Z,7.45
2022-07-26T06:58:55.251Z,10.32
2022-07-26T07:01:51.329Z,7.57
2022-07-26T07:04:09.567Z,7.75
2022-07-26T07:06:36.853Z,8.30
2022-07-26T07:09:03.741Z,7.97
2022-07-26T07:11:33.314Z,7.82
2022-07-26T07:14:03.086Z,14.55
2022-07-26T07:16:29.664Z,5.97
2022-07-26T07:18:56.325Z,6.00
2022-07-26T07:21:22.901Z,6.93
2022-07-26T07:23:49.711Z,6.75
2022-07-26T07:26:16.453Z,7.60
2022-07-26T07:28:46.250Z,7.22
2022-07-26T07:31:15.284Z,5.88
2022-07-26T07:33:52.749Z,8.77
2022-07-26T07:36:21.100Z,4.78
2022-07-26T07:38:48.653Z,8.70
2022-07-26T07:41:15.950Z,7.90
2022-07-26T07:43:42.525Z,10.07
2022-07-26T07:46:09.574Z,9.20
2022-07-26T07:48:46.957Z,5.72
2022-07-26T07:51:14.186Z,8.30
2022-07-26T07:53:40.729Z,8.50
2022-07-26T07:56:07.937Z,5.75
2022-07-26T07:58:34.602Z,7.88
2022-07-26T08:01:01.468Z,7.05
2022-07-26T08:03:39.039Z,4.93
2022-07-26T08:06:07.383Z,5.43
2022-07-26T08:08:34.579Z,7.90
2022-07-26T08:11:01.141Z,6.75
2022-07-26T08:13:27.883Z,6.43
2022-07-26T08:15:57.779Z,6.68
2022-07-26T08:18:26.290Z,8.45
2022-07-26T08:20:53.579Z,5.38
2022-07-26T08:23:20.785Z,8.10
2022-07-26T08:25:56.252Z,7.25
2022-07-26T08:28:46.252Z,6.55
2022-07-26T08:31:12.448Z,5.47
2022-07-26T08:33:40.527Z,8.48
2022-07-26T08:36:08.565Z,4.90
2022-07-26T08:38:35.448Z,5.63
2022-07-26T08:41:02.142Z,5.60
2022-07-26T08:43:29.139Z,5.22
2022-07-26T08:46:04.082Z,5.82
2022-07-26T08:48:30.836Z,6.60
2022-07-26T08:50:57.846Z,5.22
2022-07-26T08:53:24.486Z,6.78
2022-07-26T08:56:06.935Z,5.35
2022-07-26T08:58:35.651Z,4.93
2022-07-26T09:01:07.590Z,7.13
2022-07-26T09:03:37.737Z,6.80
2022-07-26T09:06:34.251Z,5.30
2022-07-26T09:09:11.352Z,5.95
2022-07-26T09:11:38.375Z,5.75
2022-07-26T09:14:06.015Z,6.03
2022-07-26T09:16:37.296Z,5.85
2022-07-26T09:19:22.592Z,5.80
2022-07-26T09:21:50.338Z,6.10
2022-07-26T09:24:43.593Z,8.00
2022-07-26T09:27:12.250Z,4.40
2022-07-26T09:32:20.939Z,10.75
2022-07-26T09:34:55.674Z,3.97
2022-07-26T09:37:39.524Z,5.40
2022-07-26T09:40:08.731Z,6.22
2022-07-26T09:42:35.593Z,4.95
2022-07-26T09:45:02.915Z,5.03
2022-07-26T09:47:39.916Z,5.70
2022-07-26T09:50:27.910Z,4.22
2022-07-26T09:55:55.885Z,4.10
2022-07-26T09:58:23.811Z,5.78
2022-07-26T10:00:50.710Z,5.47
2022-07-26T10:03:17.490Z,8.32
2022-07-26T10:05:44.144Z,4.47
2022-07-26T10:08:10.833Z,4.60
2022-07-26T10:10:45.607Z,5.03
2022-07-26T10:13:12.940Z,4.00
2022-07-26T10:15:44.592Z,4.75
2022-07-26T10:18:39.374Z,4.55
2022-07-26T10:21:20.489Z,9.77
2022-07-26T10:23:49.859Z,5.57
2022-07-26T10:26:31.822Z,6.30
2022-07-26T10:29:16.625Z,4.50
2022-07-26T10:31:47.132Z,5.32
2022-07-26T10:34:40.254Z,6.05
2022-07-26T10:37:12.971Z,4.47
2022-07-26T10:39:39.690Z,5.32
2022-07-26T10:42:08.346Z,5.88
2022-07-26T10:44:41.323Z,3.75
2022-07-26T10:47:08.073Z,5.07
2022-07-26T10:49:37.408Z,9.80
2022-07-26T10:52:36.529Z,4.60
2022-07-26T10:55:03.562Z,6.35
2022-07-26T10:57:35.623Z,4.13
2022-07-26T11:00:08.322Z,4.13
2022-07-26T11:02:35.973Z,7.05
2022-07-26T11:05:14.438Z,6.10
2022-07-26T11:08:11.067Z,4.72
2022-07-26T11:10:41.635Z,5.70
2022-07-26T11:13:19.791Z,9.65
2022-07-26T11:15:50.363Z,4.20
2022-07-26T11:18:22.485Z,6.20
2022-07-26T11:20:53.164Z,5.28
2022-07-26T11:23:34.305Z,8.02
2022-07-26T11:26:05.208Z,5.75
2022-07-26T11:28:46.085Z,6.03
2022-07-26T11:31:13.245Z,6.25
2022-07-26T11:33:43.319Z,4.85
2022-07-26T11:36:09.994Z,4.82
2022-07-26T11:38:54.034Z,5.13
2022-07-26T11:41:34.896Z,6.28
2022-07-26T11:44:02.716Z,8.10
2022-07-26T11:46:35.452Z,4.72
2022-07-26T11:49:02.772Z,3.75
2022-07-26T11:51:29.518Z,4.10
2022-07-26T11:53:59.756Z,6.47
2022-07-26T11:56:28.765Z,4.65
2022-07-26T11:58:57.031Z,5.25
2022-07-26T12:01:24.999Z,5.35
2022-07-26T12:03:53.345Z,5.90
2022-07-26T12:06:22.136Z,5.10
2022-07-26T12:08:56.278Z,3.90
2022-07-26T12:11:25.575Z,5.35
2022-07-26T12:13:57.412Z,6.28
2022-07-26T12:16:46.012Z,7.55
2022-07-26T12:19:18.702Z,6.47
2022-07-26T12:22:06.721Z,6.35
2022-07-26T12:24:47.997Z,6.43
2022-07-26T12:27:21.865Z,5.13
2022-07-26T12:29:50.725Z,12.05
2022-07-26T12:32:24.760Z,6.97
2022-07-26T12:34:59.436Z,6.20
2022-07-26T12:37:39.425Z,8.82
2022-07-26T12:40:12.675Z,5.90
2022-07-26T12:42:58.687Z,5.90
2022-07-26T12:48:06.906Z,7.53
2022-07-26T12:50:33.526Z,9.65
2022-07-26T12:53:08.645Z,7.35
2022-07-26T12:55:35.944Z,7.72
2022-07-26T12:58:02.708Z,5.18
2022-07-26T13:00:29.814Z,3.78
2022-07-26T13:02:57.193Z,5.53
2022-07-26T13:05:24.077Z,6.00
2022-07-26T13:07:51.908Z,6.65
2022-07-26T13:10:35.679Z,5.38
2022-07-26T13:13:03.992Z,6.10
2022-07-26T13:15:36.196Z,5.45
2022-07-26T13:18:05.647Z,5.80
2022-07-26T13:20:32.711Z,5.95
2022-07-26T13:22:59.416Z,4.25
2022-07-26T13:25:29.047Z,3.47
2022-07-26T13:28:05.430Z,3.42
2022-07-26T13:30:32.090Z,3.53
2022-07-26T13:32:58.691Z,4.40
2022-07-26T13:35:25.266Z,4.57
2022-07-26T13:37:51.798Z,4.30
2022-07-26T13:40:18.501Z,4.25
2022-07-26T13:42:45.252Z,6.85
2022-07-26T13:45:11.961Z,3.38
2022-07-26T13:47:38.566Z,4.00
2022-07-26T13:50:05.963Z,4.40
2022-07-26T13:52:34.505Z,4.63
2022-07-26T13:55:01.123Z,4.20
2022-07-26T13:57:47.050Z,3.78
2022-07-26T14:00:15.040Z,5.40
2022-07-26T14:02:41.848Z,5.18
2022-07-26T14:05:09.055Z,6.13
2022-07-26T14:07:36.000Z,3.63
2022-07-26T14:10:02.619Z,4.03
2022-07-26T14:12:29.213Z,5.00
2022-07-26T14:14:55.998Z,5.43
2022-07-26T14:17:22.559Z,3.63
2022-07-26T14:19:49.179Z,3.45
2022-07-26T14:22:15.730Z,5.07
2022-07-26T14:24:42.377Z,2.80
2022-07-26T14:27:08.941Z,4.90
2022-07-26T14:29:35.857Z,3.80
2022-07-26T14:32:03.081Z,2.85
2022-07-26T14:34:29.837Z,5.95
2022-07-26T14:36:56.395Z,3.17
2022-07-26T14:39:23.027Z,4.97
2022-07-26T14:41:49.691Z,6.50
2022-07-26T14:44:16.359Z,4.32
2022-07-26T14:46:43.872Z,3.22
2022-07-26T14:49:10.731Z,4.85
2022-07-26T14:51:37.542Z,4.53
2022-07-26T14:54:04.635Z,4.70
2022-07-26T14:56:31.433Z,5.13
2022-07-26T14:58:58.033Z,4.03
2022-07-26T15:01:24.645Z,5.82
2022-07-26T15:03:51.237Z,7.45
2022-07-26T15:06:18.011Z,4.18
2022-07-26T15:08:44.728Z,4.97
2022-07-26T15:11:11.523Z,4.38
2022-07-26T15:13:38.543Z,4.43
2022-07-26T15:16:05.491Z,3.67
2022-07-26T15:18:32.440Z,5.35
2022-07-26T15:21:00.088Z,4.28
2022-07-26T15:23:30.591Z,5.38
2022-07-26T15:25:57.278Z,4.32
2022-07-26T15:28:23.988Z,3.40
2022-07-26T15:30:56.338Z,4.07
2022-07-26T15:33:22.913Z,3.47
2022-07-26T15:35:50.643Z,2.40
2022-07-26T15:38:17.212Z,5.18
2022-07-26T15:40:43.834Z,3.83
2022-07-26T15:43:10.428Z,4.20
2022-07-26T15:45:40.866Z,2.72
2022-07-26T15:48:15.779Z,4.47
2022-07-26T15:50:44.704Z,3.28
2022-07-26T15:53:11.368Z,4.60
2022-07-26T15:55:38.049Z,4.15
2022-07-26T15:58:04.568Z,5.05
2022-07-26T16:00:31.152Z,3.90
2022-07-26T16:02:57.751Z,3.72
2022-07-26T16:05:24.260Z,4.40
2022-07-26T16:07:50.763Z,3.90
2022-07-26T16:10:17.484Z,3.75
2022-07-26T16:12:44.312Z,4.40
2022-07-26T16:15:11.633Z,5.53
2022-07-26T16:17:38.356Z,4.20
2022-07-26T16:20:05.983Z,4.47
2022-07-26T16:22:33.030Z,4.10
2022-07-26T16:24:59.648Z,3.72
2022-07-26T16:27:26.195Z,4.13
2022-07-26T16:29:52.749Z,4.03
2022-07-26T16:32:21.101Z,3.13
2022-07-26T16:34:47.781Z,3.83
2022-07-26T16:37:14.379Z,3.60
2022-07-26T16:39:40.971Z,2.67
2022-07-26T16:42:07.689Z,4.75
2022-07-26T16:44:35.981Z,5.18
2022-07-26T16:47:02.816Z,4.35
2022-07-26T16:49:29.558Z,4.00
2022-07-26T16:51:57.011Z,4.28
2022-07-26T16:54:23.583Z,7.47
2022-07-26T16:56:50.139Z,2.90
2022-07-26T16:59:17.275Z,4.15
2022-07-26T17:01:44.515Z,2.80
2022-07-26T17:04:11.189Z,4.60
2022-07-26T17:06:37.839Z,3.70
2022-07-26T17:09:04.723Z,2.25
2022-07-26T17:11:31.385Z,2.88
2022-07-26T17:13:58.089Z,3.15
2022-07-26T17:16:25.143Z,3.83
2022-07-26T17:18:53.071Z,3.38
2022-07-26T17:21:19.667Z,3.63
2022-07-26T17:23:46.565Z,3.45
2022-07-26T17:26:13.266Z,3.88
2022-07-26T17:28:39.919Z,3.63
2022-07-26T17:31:06.464Z,3.22
2022-07-26T17:33:33.407Z,4.93
2022-07-26T17:36:02.217Z,3.80
2022-07-26T17:38:31.169Z,6.70
2022-07-26T17:40:57.729Z,4.40
2022-07-26T17:43:25.302Z,4.13
2022-07-26T17:46:03.609Z,4.28
2022-07-26T17:48:30.284Z,2.67
2022-07-26T17:50:56.854Z,2.28
2022-07-26T17:53:32.055Z,3.22
2022-07-26T17:56:02.105Z,3.63
2022-07-26T17:58:28.856Z,6.22
2022-07-26T18:00:55.640Z,3.33
2022-07-26T18:03:23.248Z,2.90
2022-07-26T18:05:50.681Z,1.52
2022-07-26T18:08:17.351Z,3.65
2022-07-26T18:10:48.976Z,3.67
2022-07-26T18:13:17.747Z,4.70
2022-07-26T18:15:47.284Z,3.42
2022-07-26T18:18:13.942Z,3.28
2022-07-26T18:20:41.173Z,4.47
2022-07-26T18:23:07.913Z,3.85
2022-07-26T18:25:34.526Z,4.20
2022-07-26T18:28:06.665Z,5.60
2022-07-26T18:30:34.064Z,2.20
2022-07-26T18:33:01.283Z,4.90
2022-07-26T18:35:27.980Z,3.88
2022-07-26T18:37:54.659Z,3.00
2022-07-26T18:40:25.011Z,3.90
2022-07-26T18:42:52.476Z,1.67
2022-07-26T18:45:19.034Z,2.20
2022-07-26T18:47:45.783Z,4.85
2022-07-26T18:50:15.258Z,4.18
2022-07-26T18:52:44.669Z,4.75
2022-07-26T18:55:12.550Z,3.05
2022-07-26T18:57:40.978Z,2.97
2022-07-26T19:00:16.879Z,3.60
2022-07-26T19:05:10.586Z,3.75
2022-07-26T19:07:38.210Z,3.85
2022-07-26T19:10:06.479Z,4.53
2022-07-26T19:12:33.293Z,4.35
2022-07-26T19:15:00.014Z,5.18
2022-07-26T19:17:27.632Z,4.57
2022-07-26T19:19:57.001Z,5.93
2022-07-26T19:22:25.084Z,5.22
2022-07-26T19:24:51.746Z,4.85
2022-07-26T19:27:18.772Z,4.28
2022-07-26T19:29:45.302Z,4.22
2022-07-26T19:32:11.816Z,3.80
2022-07-26T19:34:38.519Z,3.90
2022-07-26T19:37:05.042Z,4.25
2022-07-26T19:39:31.808Z,4.40
2022-07-26T19:41:58.437Z,3.88
2022-07-26T19:44:25.192Z,4.03
2022-07-26T19:46:56.996Z,3.47
2022-07-26T19:49:24.244Z,3.45
2022-07-26T19:51:50.898Z,3.20
2022-07-26T19:54:17.630Z,2.78
2022-07-26T19:56:44.181Z,5.47
2022-07-26T19:59:11.066Z,3.67
2022-07-26T20:01:40.313Z,4.38
2022-07-26T20:04:07.019Z,4.28
2022-07-26T20:06:33.719Z,4.68
2022-07-26T20:09:00.273Z,3.88
2022-07-26T20:11:28.171Z,9.30
2022-07-26T20:13:55.479Z,4.10
2022-07-26T20:16:22.324Z,4.40
2022-07-26T20:18:48.915Z,5.20
2022-07-26T20:21:15.465Z,2.95
2022-07-26T20:23:42.035Z,3.83
2022-07-26T20:26:08.586Z,4.00
2022-07-26T20:28:35.133Z,4.78
2022-07-26T20:31:01.911Z,3.30
2022-07-26T20:33:28.584Z,5.78
2022-07-26T20:35:55.472Z,5.60
2022-07-26T20:38:22.747Z,2.78
2022-07-26T20:40:49.480Z,6.32
2022-07-26T20:43:16.267Z,4.00
2022-07-26T20:45:42.968Z,6.10
2022-07-26T20:48:09.508Z,4.85
2022-07-26T20:50:36.534Z,6.18
2022-07-26T20:53:03.441Z,7.32
2022-07-26T20:55:30.008Z,4.32
2022-07-26T20:57:56.597Z,5.28
2022-07-26T21:00:24.779Z,3.88
2022-07-26T21:02:53.533Z,7.25
2022-07-26T21:05:20.532Z,6.40
2022-07-26T21:07:58.434Z,4.95
2022-07-26T21:10:27.665Z,4.82
2022-07-26T21:12:57.111Z,5.75
2022-07-26T21:15:23.731Z,7.22
2022-07-26T21:17:50.301Z,4.45
2022-07-26T21:20:17.102Z,6.05
2022-07-26T21:22:43.739Z,5.78
2022-07-26T21:25:10.431Z,4.85
2022-07-26T21:27:38.686Z,5.70
2022-07-26T21:30:06.982Z,4.82
2022-07-26T21:32:36.402Z,4.97
2022-07-26T21:35:03.746Z,7.20
2022-07-26T21:37:30.444Z,5.18
2022-07-26T21:39:56.966Z,6.60
2022-07-26T21:42:27.778Z,5.68
2022-07-26T21:44:54.286Z,6.22
2022-07-26T21:47:20.903Z,6.63
2022-07-26T21:49:56.091Z,6.68
2022-07-26T21:52:49.059Z,7.38
2022-07-26T21:58:12.672Z,5.05
2022-07-26T22:00:39.800Z,4.10
2022-07-26T22:03:06.923Z,4.72
2022-07-26T22:05:40.125Z,7.25
2022-07-26T22:08:11.845Z,4.53
2022-07-26T22:10:44.422Z,6.35
2022-07-26T22:13:12.061Z,7.07
2022-07-26T22:15:38.611Z,4.60
2022-07-26T22:18:05.570Z,4.78
2022-07-26T22:20:33.078Z,6.25
2022-07-26T22:23:09.746Z,7.05
2022-07-26T22:25:37.471Z,4.32
2022-07-26T22:28:05.632Z,7.10
2022-07-26T22:30:32.521Z,9.23
2022-07-26T22:33:01.138Z,5.00
2022-07-26T22:35:32.360Z,5.20
2022-07-26T22:38:05.820Z,8.30
2022-07-26T22:40:32.986Z,7.50
2022-07-26T22:42:59.785Z,7.60
2022-07-26T22:45:27.363Z,9.13
2022-07-26T22:47:56.379Z,3.72
2022-07-26T22:50:24.853Z,6.35
2022-07-26T22:52:51.929Z,5.90
2022-07-26T22:55:18.466Z,5.38
2022-07-26T22:57:45.277Z,6.50
2022-07-26T23:00:14.788Z,5.20
2022-07-26T23:02:41.629Z,5.30
2022-07-26T23:05:09.021Z,3.80
2022-07-26T23:07:36.699Z,5.47
2022-07-26T23:10:04.542Z,4.05
2022-07-26T23:12:31.117Z,5.55
2022-07-26T23:14:57.702Z,5.78
2022-07-26T23:17:24.238Z,8.07
2022-07-26T23:19:50.887Z,7.63
2022-07-26T23:22:17.831Z,5.63
2022-07-26T23:24:44.326Z,6.57
2022-07-26T23:27:10.972Z,10.20
2022-07-26T23:29:37.486Z,5.32
2022-07-26T23:32:04.326Z,8.02
2022-07-26T23:34:30.815Z,8.27
2022-07-26T23:36:57.366Z,5.68
2022-07-26T23:39:24.019Z,5.57
2022-07-26T23:41:50.678Z,7.38
2022-07-26T23:44:17.336Z,5.15
2022-07-26T23:46:43.924Z,7.50
2022-07-26T23:49:11.181Z,7.30
2022-07-26T23:51:38.849Z,4.47
2022-07-26T23:54:05.779Z,9.30
2022-07-26T23:56:32.327Z,6.10
2022-07-26T23:58:58.828Z,7.05
